Albers, Illinois
Current Conditions -  °F | °C
As of 3:58 PM on Monday 20 Oct 2014 (Local Time) from KBLV Reporting Station
Clear Clear  
Wind Chill: 22°   Ceiling: Unl
Heat Index: 22°   Visibility: 10mi
Dew Point:   Wind: 8mph
Humidity: 43%   Direction: 300°WNW
Pressure: 29.93"   Gusts: 17mph
Location:  38.54°N, 89.61°W
Report Text: KBLV 202058Z AUTO 30007G15KT 10SM CLR 22/09 A2993 RMK AO2 VIS 2 1/2 RWY14L SLP137 T02240092 55005
Loading
Personal Weather Stations






























Interactive Weather Map
Tropical Storm Tracking
New forecast layout! Learn more

10-Day Weather Forecast

Advertisements
Track Severe Weather on mobile